createdAt,value
2019-02-20T00:00:11.850Z,94496.06
2019-02-20T00:02:40.727Z,94485.05
2019-02-20T00:05:09.649Z,94485.05
2019-02-20T00:07:38.489Z,94492.63
2019-02-20T00:10:07.637Z,94484.16
2019-02-20T00:12:36.692Z,94491.67
2019-02-20T00:15:06.904Z,94500.05
2019-02-20T00:17:35.773Z,94498.02
2019-02-20T00:20:06.111Z,94494.33
2019-02-20T00:22:40.210Z,94495.75
2019-02-20T00:25:07.313Z,94495.75
2019-02-20T00:27:36.489Z,94493.67
2019-02-20T00:30:07.961Z,94482.13
2019-02-20T00:32:36.806Z,94482.13
2019-02-20T00:35:06.821Z,94468.70
2019-02-20T00:37:35.676Z,94468.70
2019-02-20T00:40:06.536Z,94478.33
2019-02-20T00:42:35.450Z,94479.96
2019-02-20T00:45:06.673Z,94479.96
2019-02-20T00:47:37.098Z,94477.15
2019-02-20T00:50:07.013Z,94479.89
2019-02-20T00:52:49.420Z,94471.05
2019-02-20T00:55:11.206Z,94471.05
2019-02-20T00:57:40.052Z,94471.92
2019-02-20T01:00:12.019Z,94473.00
2019-02-20T01:02:40.926Z,94473.00
2019-02-20T01:05:09.908Z,94472.20
2019-02-20T01:07:38.851Z,94472.20
2019-02-20T01:10:08.981Z,94465.03
2019-02-20T01:12:37.930Z,94465.33
2019-02-20T01:15:09.780Z,94465.33
2019-02-20T01:17:38.692Z,94465.33
2019-02-20T01:20:09.951Z,94465.33
2019-02-20T01:22:38.788Z,94468.30
2019-02-20T01:25:07.656Z,94464.97
2019-02-20T01:27:36.285Z,94467.91
2019-02-20T01:30:07.601Z,94467.60
2019-02-20T01:32:36.262Z,94464.55
2019-02-20T01:35:05.097Z,94463.87
2019-02-20T01:37:33.796Z,94461.51
2019-02-20T01:40:02.482Z,94468.77
2019-02-20T01:42:31.118Z,94459.53
2019-02-20T01:44:59.732Z,94459.53
2019-02-20T01:47:28.385Z,94460.56
2019-02-20T01:49:57.006Z,94460.56
2019-02-20T01:52:25.631Z,94460.65
2019-02-20T01:54:54.286Z,94460.65
2019-02-20T01:57:22.916Z,94447.06
2019-02-20T01:59:51.543Z,94448.69
2019-02-20T02:02:20.203Z,94448.69
2019-02-20T02:04:48.818Z,94453.38
2019-02-20T02:07:17.445Z,94447.14
2019-02-20T02:09:46.104Z,94448.27
2019-02-20T02:12:14.724Z,94446.86
2019-02-20T02:14:43.360Z,94446.19
2019-02-20T02:17:12.017Z,94442.52
2019-02-20T02:19:40.636Z,94446.19
2019-02-20T02:22:09.265Z,94446.19
2019-02-20T02:24:37.946Z,94441.79
2019-02-20T02:27:06.570Z,94441.79
2019-02-20T02:29:35.202Z,94442.36
2019-02-20T02:32:03.847Z,94444.91
2019-02-20T02:34:32.469Z,94444.91
2019-02-20T02:37:01.114Z,94452.25
2019-02-20T02:39:29.768Z,94452.25
2019-02-20T02:41:58.394Z,94447.72
2019-02-20T02:44:27.009Z,94442.09
2019-02-20T02:46:55.690Z,94449.97
2019-02-20T02:49:24.314Z,94444.42
2019-02-20T02:51:52.920Z,94446.16
2019-02-20T02:54:21.582Z,94446.16
2019-02-20T02:56:50.214Z,94443.09
2019-02-20T02:59:18.852Z,94442.39
2019-02-20T03:01:47.496Z,94442.58
2019-02-20T03:04:16.134Z,94436.81
2019-02-20T03:06:44.752Z,94441.12
2019-02-20T03:09:13.401Z,94445.39
2019-02-20T03:11:42.020Z,94445.39
2019-02-20T03:14:10.647Z,94444.02
2019-02-20T03:16:39.317Z,94446.50
2019-02-20T03:19:07.944Z,94451.39
2019-02-20T03:21:36.553Z,94451.19
2019-02-20T03:24:05.200Z,94450.32
2019-02-20T03:26:33.821Z,94448.53
2019-02-20T03:29:02.449Z,94453.89
2019-02-20T03:31:31.111Z,94448.25
2019-02-20T03:33:59.781Z,94448.17
2019-02-20T03:36:28.441Z,94446.31
2019-02-20T03:38:57.110Z,94455.22
2019-02-20T03:41:25.957Z,94452.65
2019-02-20T03:43:54.562Z,94462.22
2019-02-20T03:46:23.221Z,94457.03
2019-02-20T03:48:51.852Z,94460.48
2019-02-20T03:51:20.469Z,94456.00
2019-02-20T03:53:51.953Z,94448.38
2019-02-20T03:56:19.472Z,94454.59
2019-02-20T03:58:48.096Z,94452.27
2019-02-20T04:01:16.739Z,94446.88
2019-02-20T04:03:45.364Z,94448.45
2019-02-20T04:06:13.991Z,94444.16
2019-02-20T04:08:42.651Z,94445.41
2019-02-20T04:11:11.270Z,94446.80
2019-02-20T04:13:39.904Z,94435.67
2019-02-20T04:16:08.570Z,94435.67
2019-02-20T04:18:37.199Z,94437.41
2019-02-20T04:21:05.849Z,94438.16
2019-02-20T04:23:34.479Z,94440.42
2019-02-20T04:26:03.139Z,94436.04
2019-02-20T04:28:31.736Z,94432.89
2019-02-20T04:31:00.389Z,94436.28
2019-02-20T04:33:29.009Z,94442.34
2019-02-20T04:35:57.630Z,94438.78
2019-02-20T04:38:26.289Z,94442.30
2019-02-20T04:40:54.925Z,94442.17
2019-02-20T04:43:23.619Z,94449.05
2019-02-20T04:45:52.283Z,94457.86
2019-02-20T04:48:20.912Z,94461.75
2019-02-20T04:50:49.526Z,94452.77
2019-02-20T04:53:18.190Z,94447.69
2019-02-20T04:55:46.805Z,94450.80
2019-02-20T04:58:20.641Z,94445.98
2019-02-20T05:00:49.292Z,94449.17
2019-02-20T05:03:17.916Z,94450.57
2019-02-20T05:05:46.547Z,94445.16
2019-02-20T05:08:15.200Z,94445.93
2019-02-20T05:10:43.829Z,94449.52
2019-02-20T05:13:12.455Z,94449.61
2019-02-20T05:15:41.204Z,94449.34
2019-02-20T05:18:09.837Z,94455.05
2019-02-20T05:20:38.620Z,94455.58
2019-02-20T05:23:07.282Z,94455.11
2019-02-20T05:25:35.985Z,94455.36
2019-02-20T05:28:04.611Z,94459.56
2019-02-20T05:30:33.263Z,94461.94
2019-02-20T05:33:01.910Z,94476.20
2019-02-20T05:35:30.533Z,94472.58
2019-02-20T05:37:59.267Z,94474.16
2019-02-20T05:40:27.942Z,94487.83
2019-02-20T05:42:56.541Z,94490.58
2019-02-20T05:45:25.204Z,94489.08
2019-02-20T05:47:53.832Z,94492.58
2019-02-20T05:50:22.462Z,94491.18
2019-02-20T05:52:51.198Z,94500.05
2019-02-20T05:55:19.838Z,94492.98
2019-02-20T05:57:48.467Z,94505.70
2019-02-20T06:03:47.109Z,94496.77
2019-02-20T06:06:15.738Z,94498.21
2019-02-20T06:08:44.372Z,94496.66
2019-02-20T06:11:15.212Z,94497.66
2019-02-20T06:13:43.424Z,94495.33
2019-02-20T06:16:12.069Z,94493.06
2019-02-20T06:18:40.777Z,94496.41
2019-02-20T06:21:09.362Z,94498.94
2019-02-20T06:23:37.998Z,94492.70
2019-02-20T06:26:06.672Z,94507.06
2019-02-20T06:28:35.299Z,94513.59
2019-02-20T06:31:03.927Z,94528.50
2019-02-20T06:33:33.062Z,94534.81
2019-02-20T06:36:01.698Z,94533.97
2019-02-20T06:38:30.322Z,94537.33
2019-02-20T06:40:59.000Z,94549.51
2019-02-20T06:43:27.610Z,94551.39
2019-02-20T06:45:56.241Z,94546.45
2019-02-20T06:48:24.911Z,94541.24
2019-02-20T06:50:53.534Z,94547.78
2019-02-20T06:53:22.188Z,94549.28
2019-02-20T06:55:50.864Z,94550.73
2019-02-20T06:58:19.567Z,94543.44
2019-02-20T07:00:48.204Z,94553.09
2019-02-20T07:03:16.873Z,94549.41
2019-02-20T07:05:45.494Z,94549.37
2019-02-20T07:08:35.561Z,94550.33
2019-02-20T07:11:09.785Z,94550.23
2019-02-20T07:14:02.170Z,94545.34
2019-02-20T07:16:49.978Z,94545.34
2019-02-20T07:19:21.560Z,94555.70
2019-02-20T07:21:58.870Z,94549.83
2019-02-20T07:24:33.164Z,94556.08
2019-02-20T07:27:07.283Z,94552.48
2019-02-20T07:30:00.576Z,94538.89
2019-02-20T07:32:29.179Z,94550.42
2019-02-20T07:34:57.804Z,94550.42
2019-02-20T07:37:26.471Z,94555.99
2019-02-20T07:39:55.095Z,94550.56
2019-02-20T07:42:23.819Z,94550.56
2019-02-20T07:44:52.479Z,94550.41
2019-02-20T07:47:21.115Z,94549.70
2019-02-20T07:49:49.749Z,94558.48
2019-02-20T07:52:18.410Z,94558.48
2019-02-20T07:54:47.030Z,94547.80
2019-02-20T07:57:15.659Z,94548.72
2019-02-20T07:59:44.338Z,94549.02
2019-02-20T08:02:12.970Z,94549.02
2019-02-20T08:04:41.613Z,94558.06
2019-02-20T08:07:10.269Z,94561.92
2019-02-20T08:09:38.895Z,94543.83
2019-02-20T08:12:07.523Z,94543.83
2019-02-20T08:14:36.190Z,94548.92
2019-02-20T08:17:04.825Z,94548.92
2019-02-20T08:19:33.450Z,94548.12
2019-02-20T08:22:02.117Z,94547.64
2019-02-20T08:24:30.736Z,94543.75
2019-02-20T08:26:59.355Z,94547.09
2019-02-20T08:29:28.046Z,94551.09
2019-02-20T08:31:56.642Z,94541.56
2019-02-20T08:34:25.280Z,94552.05
2019-02-20T08:36:53.934Z,94540.89
2019-02-20T08:39:22.565Z,94536.89
2019-02-20T08:41:51.195Z,94546.00
2019-02-20T08:44:19.855Z,94546.00
2019-02-20T08:46:48.484Z,94539.76
2019-02-20T08:49:17.120Z,94540.83
2019-02-20T08:51:45.790Z,94540.83
2019-02-20T08:54:14.424Z,94541.64
2019-02-20T08:56:43.049Z,94547.62
2019-02-20T08:59:11.717Z,94550.59
2019-02-20T09:01:40.336Z,94549.22
2019-02-20T09:04:08.968Z,94546.38
2019-02-20T09:06:37.637Z,94546.38
2019-02-20T09:09:06.272Z,94547.23
2019-02-20T09:11:34.898Z,94541.34
2019-02-20T09:14:03.573Z,94544.37
2019-02-20T09:16:32.202Z,94552.28
2019-02-20T09:19:00.835Z,94548.77
2019-02-20T09:21:29.626Z,94539.58
2019-02-20T09:23:58.192Z,94540.72
2019-02-20T09:26:26.819Z,94535.45
2019-02-20T09:28:56.735Z,94539.69
2019-02-20T09:31:25.555Z,94535.61
2019-02-20T09:33:54.175Z,94533.94
2019-02-20T09:36:22.850Z,94531.94
2019-02-20T09:38:51.481Z,94535.48
2019-02-20T09:41:20.105Z,94560.66
2019-02-20T09:43:48.839Z,94540.17
2019-02-20T09:46:17.463Z,94538.64
2019-02-20T09:48:46.087Z,94553.31
2019-02-20T09:51:14.753Z,94547.89
2019-02-20T09:53:43.387Z,94551.20
2019-02-20T09:56:12.012Z,94535.36
2019-02-20T09:58:40.675Z,94547.73
2019-02-20T10:01:09.300Z,94541.73
2019-02-20T10:03:37.930Z,94535.52
2019-02-20T10:06:06.594Z,94535.39
2019-02-20T10:08:35.215Z,94533.16
2019-02-20T10:11:03.846Z,94533.47
2019-02-20T10:13:32.514Z,94531.94
2019-02-20T10:16:01.130Z,94529.37
2019-02-20T10:18:29.769Z,94516.23
2019-02-20T10:20:58.441Z,94517.91
2019-02-20T10:23:27.060Z,94511.33
2019-02-20T10:26:00.975Z,94523.09
2019-02-20T10:28:26.080Z,94520.91
2019-02-20T10:30:54.704Z,94513.23
2019-02-20T10:33:23.327Z,94494.39
2019-02-20T10:35:51.997Z,94491.91
2019-02-20T10:38:20.616Z,94491.25
2019-02-20T10:40:49.243Z,94483.80
2019-02-20T10:43:17.906Z,94478.95
2019-02-20T10:45:46.536Z,94475.01
2019-02-20T10:48:15.154Z,94462.78
2019-02-20T10:50:43.821Z,94460.84
2019-02-20T10:53:12.446Z,94456.80
2019-02-20T10:55:41.080Z,94470.17
2019-02-20T10:58:09.738Z,94456.84
2019-02-20T11:00:38.741Z,94455.38
2019-02-20T11:03:07.374Z,94465.89
2019-02-20T11:05:36.039Z,94447.64
2019-02-20T11:08:04.659Z,94440.20
2019-02-20T11:10:33.285Z,94441.51
2019-02-20T11:13:02.018Z,94442.48
2019-02-20T11:15:30.645Z,94437.05
2019-02-20T11:17:59.277Z,94432.84
2019-02-20T11:20:27.940Z,94434.00
2019-02-20T11:22:56.567Z,94441.67
2019-02-20T11:25:25.193Z,94433.73
2019-02-20T11:27:53.852Z,94426.88
2019-02-20T11:30:25.118Z,94441.22
2019-02-20T11:32:53.743Z,94438.47
2019-02-20T11:35:22.409Z,94436.80
2019-02-20T11:37:51.035Z,94430.79
2019-02-20T11:40:19.665Z,94445.22
2019-02-20T11:42:48.331Z,94435.70
2019-02-20T11:45:20.017Z,94455.73
2019-02-20T11:47:48.649Z,94439.14
2019-02-20T11:50:17.305Z,94437.33
2019-02-20T11:52:45.934Z,94434.92
2019-02-20T11:55:15.775Z,94436.37
2019-02-20T11:57:44.449Z,94431.05
2019-02-20T12:00:15.650Z,94432.94
2019-02-20T12:02:44.275Z,94439.13
2019-02-20T12:05:13.138Z,94429.87
2019-02-20T12:07:41.766Z,94429.29
2019-02-20T12:10:12.872Z,94426.64
2019-02-20T12:12:41.607Z,94435.36
2019-02-20T12:15:10.331Z,94434.35
2019-02-20T12:17:38.962Z,94427.88
2019-02-20T12:20:08.731Z,94428.89
2019-02-20T12:22:37.459Z,94432.09
2019-02-20T12:25:07.979Z,94433.12
2019-02-20T12:27:36.648Z,94442.27
2019-02-20T12:30:07.813Z,94429.85
2019-02-20T12:32:36.438Z,94430.53
2019-02-20T12:35:06.394Z,94432.77
2019-02-20T12:37:35.022Z,94430.72
2019-02-20T12:40:05.126Z,94432.61
2019-02-20T12:42:33.867Z,94426.66
2019-02-20T12:45:02.508Z,94433.81
2019-02-20T12:47:31.132Z,94423.83
2019-02-20T12:49:59.809Z,94424.61
2019-02-20T12:52:28.440Z,94420.13
2019-02-20T12:54:57.076Z,94424.31
2019-02-20T12:57:25.915Z,94415.05
2019-02-20T12:59:54.530Z,94421.34
2019-02-20T13:02:23.226Z,94422.51
2019-02-20T13:04:51.887Z,94426.05
2019-02-20T13:07:20.520Z,94420.14
2019-02-20T13:09:50.192Z,94415.83
2019-02-20T13:12:18.905Z,94426.70
2019-02-20T13:14:47.534Z,94437.75
2019-02-20T13:17:16.167Z,94420.54
2019-02-20T13:19:44.838Z,94422.83
2019-02-20T13:22:13.473Z,94434.72
2019-02-20T13:24:43.915Z,94424.02
2019-02-20T13:27:12.641Z,94436.15
2019-02-20T13:29:41.275Z,94432.77
2019-02-20T13:32:09.913Z,94433.33
2019-02-20T13:34:38.571Z,94426.77
2019-02-20T13:37:07.201Z,94426.59
2019-02-20T13:39:35.825Z,94428.55
2019-02-20T13:42:04.560Z,94427.59
2019-02-20T13:44:33.450Z,94439.11
2019-02-20T13:47:02.085Z,94431.97
2019-02-20T13:49:30.749Z,94437.56
2019-02-20T13:51:59.379Z,94430.67
2019-02-20T13:54:28.010Z,94433.80
2019-02-20T13:57:01.829Z,94447.94
2019-02-20T13:59:27.068Z,94451.23
2019-02-20T14:01:55.936Z,94451.37
2019-02-20T14:04:24.591Z,94447.70
2019-02-20T14:06:53.222Z,94447.02
2019-02-20T14:09:21.861Z,94460.65
2019-02-20T14:11:50.523Z,94455.23
2019-02-20T14:14:19.150Z,94450.09
2019-02-20T14:16:47.779Z,94460.52
2019-02-20T14:19:16.615Z,94462.63
2019-02-20T14:21:45.245Z,94454.06
2019-02-20T14:24:13.880Z,94455.67
2019-02-20T14:26:42.620Z,94459.56
2019-02-20T14:29:11.325Z,94468.53
2019-02-20T14:31:39.952Z,94463.44
2019-02-20T14:34:08.987Z,94465.53
2019-02-20T14:36:37.685Z,94468.61
2019-02-20T14:39:06.418Z,94464.68
2019-02-20T14:41:35.082Z,94472.22
2019-02-20T14:44:03.712Z,94471.37
2019-02-20T14:46:32.346Z,94464.94
2019-02-20T14:49:01.076Z,94466.63
2019-02-20T14:51:30.045Z,94469.95
2019-02-20T14:53:58.672Z,94467.45
2019-02-20T14:56:27.341Z,94469.55
2019-02-20T14:58:55.967Z,94472.05
2019-02-20T15:01:24.596Z,94476.68
2019-02-20T15:03:53.332Z,94471.58
2019-02-20T15:06:21.958Z,94469.92
2019-02-20T15:08:50.591Z,94470.98
2019-02-20T15:11:19.348Z,94475.56
2019-02-20T15:13:48.055Z,94470.86
2019-02-20T15:16:16.748Z,94476.23
2019-02-20T15:18:45.419Z,94470.84
2019-02-20T15:21:14.119Z,94473.47
2019-02-20T15:23:43.133Z,94476.88
2019-02-20T15:26:11.799Z,94485.67
2019-02-20T15:28:40.506Z,94473.55
2019-02-20T15:31:09.130Z,94481.20
2019-02-20T15:33:37.809Z,94490.31
2019-02-20T15:36:06.415Z,94485.34
2019-02-20T15:38:35.100Z,94483.92
2019-02-20T15:41:04.020Z,94484.66
2019-02-20T15:43:32.729Z,94487.68
2019-02-20T15:46:01.421Z,94484.91
2019-02-20T15:48:30.157Z,94485.92
2019-02-20T15:50:58.853Z,94487.91
2019-02-20T15:53:27.479Z,94489.64
2019-02-20T15:55:56.153Z,94489.78
2019-02-20T15:58:24.783Z,94486.81
2019-02-20T16:00:53.423Z,94497.81
2019-02-20T16:03:22.075Z,94500.72
2019-02-20T16:05:50.705Z,94496.36
2019-02-20T16:08:19.412Z,94505.90
2019-02-20T16:10:48.140Z,94501.44
2019-02-20T16:13:17.122Z,94518.75
2019-02-20T16:15:45.825Z,94515.55
2019-02-20T16:18:14.483Z,94517.91
2019-02-20T16:20:43.178Z,94521.98
2019-02-20T16:23:11.874Z,94525.43
2019-02-20T16:25:40.972Z,94533.00
2019-02-20T16:28:09.611Z,94533.25
2019-02-20T16:30:38.598Z,94536.63
2019-02-20T16:33:07.337Z,94537.66
2019-02-20T16:35:35.981Z,94545.58
2019-02-20T16:38:04.621Z,94550.75
2019-02-20T16:40:33.357Z,94550.97
2019-02-20T16:43:03.808Z,94552.86
2019-02-20T16:45:32.493Z,94560.22
2019-02-20T16:48:01.161Z,94566.00
2019-02-20T16:50:29.820Z,94565.34
2019-02-20T16:52:58.536Z,94564.89
2019-02-20T16:55:27.261Z,94570.92
2019-02-20T16:57:56.998Z,94574.26
2019-02-20T17:00:25.891Z,94581.16
2019-02-20T17:02:57.304Z,94582.13
2019-02-20T17:05:26.159Z,94591.19
2019-02-20T17:07:54.939Z,94585.27
2019-02-20T17:10:23.693Z,94591.95
2019-02-20T17:12:52.607Z,94608.82
2019-02-20T17:15:21.314Z,94608.38
2019-02-20T17:17:50.442Z,94606.70
2019-02-20T17:20:20.592Z,94604.81
2019-02-20T17:22:49.303Z,94614.55
2019-02-20T17:25:18.440Z,94616.42
2019-02-20T17:27:47.167Z,94615.25
2019-02-20T17:30:17.098Z,94616.62
2019-02-20T17:32:46.210Z,94628.81
2019-02-20T17:35:17.146Z,94620.45
2019-02-20T17:37:46.002Z,94616.67
2019-02-20T17:40:15.793Z,94617.88
2019-02-20T17:42:44.488Z,94623.98
2019-02-20T17:45:17.266Z,94630.61
2019-02-20T17:47:46.299Z,94632.77
2019-02-20T17:50:25.314Z,94628.92
2019-02-20T17:52:53.985Z,94640.04
2019-02-20T17:55:22.697Z,94647.17
2019-02-20T17:57:51.389Z,94645.05
2019-02-20T18:00:22.171Z,94647.04
2019-02-20T18:02:50.862Z,94648.68
2019-02-20T18:05:19.562Z,94659.94
2019-02-20T18:07:51.020Z,94663.57
2019-02-20T18:10:18.711Z,94659.80
2019-02-20T18:12:47.412Z,94657.20
2019-02-20T18:15:16.142Z,94663.84
2019-02-20T18:17:44.855Z,94666.36
2019-02-20T18:20:13.555Z,94668.09
2019-02-20T18:22:43.772Z,94669.48
2019-02-20T18:25:13.072Z,94672.95
2019-02-20T18:27:41.757Z,94672.78
2019-02-20T18:30:15.358Z,94676.64
2019-02-20T18:32:44.059Z,94676.34
2019-02-20T18:35:17.515Z,94682.79
2019-02-20T18:37:46.240Z,94673.66
2019-02-20T18:40:18.194Z,94685.94
2019-02-20T18:42:46.907Z,94690.20
2019-02-20T18:45:16.336Z,94688.45
2019-02-20T18:47:45.047Z,94688.45
2019-02-20T18:50:15.048Z,94688.55
2019-02-20T18:52:43.779Z,94698.31
2019-02-20T18:55:13.705Z,94698.53
2019-02-20T18:57:42.402Z,94689.94
2019-02-20T19:00:16.543Z,94701.97
2019-02-20T19:02:45.276Z,94704.59
2019-02-20T19:05:14.741Z,94708.11
2019-02-20T19:07:43.496Z,94708.16
2019-02-20T19:10:21.336Z,94706.13
2019-02-20T19:13:07.931Z,94707.61
2019-02-20T19:15:51.418Z,94711.67
2019-02-20T19:18:25.746Z,94719.50
2019-02-20T19:21:12.369Z,94721.80
2019-02-20T19:24:00.269Z,94726.58
2019-02-20T19:26:48.246Z,94725.00
2019-02-20T19:29:39.270Z,94729.14
2019-02-20T19:32:33.236Z,94727.00
2019-02-20T19:35:22.743Z,94729.14
2019-02-20T19:38:10.571Z,94730.77
2019-02-20T19:41:15.340Z,94726.66
2019-02-20T19:43:47.029Z,94731.02
2019-02-20T19:46:41.287Z,94731.44
2019-02-20T19:49:27.354Z,94736.28
2019-02-20T19:52:19.951Z,94738.30
2019-02-20T19:55:03.283Z,94740.89
2019-02-20T19:57:40.442Z,94734.44
2019-02-20T20:00:24.151Z,94734.84
2019-02-20T20:02:58.630Z,94736.61
2019-02-20T20:05:36.725Z,94731.54
2019-02-20T20:08:29.176Z,94730.52
2019-02-20T20:11:06.674Z,94736.04
2019-02-20T20:14:11.139Z,94737.34
2019-02-20T20:16:59.143Z,94730.86
2019-02-20T20:19:50.064Z,94734.58
2019-02-20T20:22:33.375Z,94739.73
2019-02-20T20:25:26.158Z,94731.09
2019-02-20T20:28:18.893Z,94738.73
2019-02-20T20:31:05.249Z,94737.40
2019-02-20T20:33:54.545Z,94737.40
2019-02-20T20:36:41.105Z,94742.29
2019-02-20T20:39:18.717Z,94736.98
2019-02-20T20:42:05.259Z,94736.36
2019-02-20T20:44:36.882Z,94741.99
2019-02-20T20:47:11.141Z,94728.19
2019-02-20T20:49:45.539Z,94744.95
2019-02-20T20:52:38.254Z,94744.95
2019-02-20T20:55:27.908Z,94741.98
2019-02-20T20:58:21.990Z,94743.66
2019-02-20T21:00:59.126Z,94740.58
2019-02-20T21:03:30.417Z,94745.52
2019-02-20T21:06:13.727Z,94748.08
2019-02-20T21:08:45.397Z,94752.76
2019-02-20T21:11:19.738Z,94748.86
2019-02-20T21:14:00.214Z,94746.88
2019-02-20T21:16:51.226Z,94743.09
2019-02-20T21:19:43.625Z,94755.68
2019-02-20T21:22:30.046Z,94752.06
2019-02-20T21:25:19.462Z,94754.61
2019-02-20T21:28:13.450Z,94753.95
2019-02-20T21:31:20.987Z,94755.02
2019-02-20T21:34:01.440Z,94745.98
2019-02-20T21:36:33.026Z,94743.09
2019-02-20T21:39:23.889Z,94749.23
2019-02-20T21:42:07.011Z,94746.70
2019-02-20T21:44:47.291Z,94747.53
2019-02-20T21:47:27.747Z,94750.81
2019-02-20T21:50:22.633Z,94749.98
2019-02-20T21:53:21.305Z,94749.83
2019-02-20T21:56:01.915Z,94755.78
2019-02-20T21:58:39.369Z,94744.89
2019-02-20T22:01:35.158Z,94756.42
2019-02-20T22:04:12.259Z,94762.80
2019-02-20T22:07:01.837Z,94760.47
2019-02-20T22:09:41.967Z,94763.97
2019-02-20T22:12:19.235Z,94772.00
2019-02-20T22:14:53.453Z,94769.61
2019-02-20T22:17:39.620Z,94780.95
2019-02-20T22:20:11.272Z,94779.72
2019-02-20T22:22:57.807Z,94783.34
2019-02-20T22:25:45.951Z,94780.69
2019-02-20T22:28:23.365Z,94786.33
2019-02-20T22:31:00.871Z,94793.88
2019-02-20T22:33:50.112Z,94791.64
2019-02-20T22:36:24.393Z,94791.08
2019-02-20T22:39:15.392Z,94792.97
2019-02-20T22:42:21.691Z,94792.63
2019-02-20T22:45:11.889Z,94786.19
2019-02-20T22:47:52.246Z,94786.19
2019-02-20T22:50:35.624Z,94790.55
2019-02-20T22:53:09.767Z,94786.16
2019-02-20T22:55:58.993Z,94787.07
2019-02-20T22:58:36.508Z,94787.07
2019-02-20T23:01:17.214Z,94784.52
2019-02-20T23:04:03.594Z,94783.70
2019-02-20T23:06:53.118Z,94775.27
2019-02-20T23:09:27.444Z,94775.27
2019-02-20T23:12:18.380Z,94777.55
2019-02-20T23:14:58.007Z,94781.75
2019-02-20T23:17:27.558Z,94785.38
2019-02-20T23:19:56.431Z,94789.61
2019-02-20T23:22:25.172Z,94790.61
2019-02-20T23:24:53.871Z,94791.57
2019-02-20T23:27:22.546Z,94793.11
2019-02-20T23:29:51.227Z,94797.27
2019-02-20T23:32:19.852Z,94794.98
2019-02-20T23:34:48.483Z,94794.17
2019-02-20T23:37:17.159Z,94793.45
2019-02-20T23:39:45.799Z,94790.61
2019-02-20T23:42:14.437Z,94790.66
2019-02-20T23:44:43.133Z,94795.94
2019-02-20T23:47:11.746Z,94784.26
2019-02-20T23:49:40.451Z,94792.42
2019-02-20T23:52:09.196Z,94793.56
2019-02-20T23:54:37.842Z,94795.22
2019-02-20T23:57:06.468Z,94795.22
2019-02-20T23:59:35.206Z,94792.48
